Hitachimaru — JD2063 — position and weather

sailwx.info

Track history (hours):
 
Tides and Currents Weather Stations Pressure Air Temp Water Temp Dewpoint Dewpoint Depression Visibility Wind Speed Wind Dir Waves Ship Positions

Hitachimaru

Last reported at 2018-May-19 23:40 UTC. Time now 2018-May-23 09:42 UTC.
Position N 33°45' E 135°09'.

Length 83 m; draft 3.6 m.

Type: Cargo ship. MMSI: 431301756.

Date/timePositionNaut miles runAvg speedWind from/ knotsBaromVisibWave heightAir tempDewpointWater temp
2018-May-19 23:40N 33°45' E 135°09'311.4
2018-May-19 23:24N 33°48' E 135°07'511.3
2018-May-19 22:58N 33°51' E 135°03'911.5
2018-May-19 22:09N 34°00' E 135°01'411.9
2018-May-19 21:50N 34°04' E 135°01'411.9
2018-May-19 21:28N 34°09' E 135°02'612.3
2018-May-19 21:00N 34°14' E 135°02'612.9
2018-May-19 20:30N 34°20' E 135°05'4 8.2
2018-May-19 20:00N 34°23' E 135°09'0 0.0
2018-May-19 19:30N 34°23' E 135°09'0 0.0
2018-May-19 19:00N 34°23' E 135°09'0 0.0
2018-May-19 18:30N 34°23' E 135°09'0 0.0
2018-May-19 18:00N 34°23' E 135°09'0 0.1
2018-May-19 17:30N 34°23' E 135°09'0 0.0
2018-May-19 17:00N 34°23' E 135°09'0 0.0
2018-May-19 16:30N 34°23' E 135°09'0 0.0
2018-May-19 16:00N 34°23' E 135°09'0 0.0
2018-May-19 15:30N 34°23' E 135°09'0 0.0
2018-May-19 14:45N 34°23' E 135°09'0 0.2
2018-May-19 14:27N 34°23' E 135°09'0 0.0
2018-May-19 14:00N 34°23' E 135°09'0 0.0
2018-May-19 13:30N 34°23' E 135°09'0 0.0
2018-May-19 13:00N 34°23' E 135°09'0 0.0
2018-May-19 12:30N 34°23' E 135°09'0 0.0
2018-May-19 12:00N 34°23' E 135°09'0 0.0
2018-May-19 11:30N 34°23' E 135°09'0 0.0
2018-May-19 11:00N 34°23' E 135°09'0 0.0
2018-May-19 10:30N 34°23' E 135°09'0 0.0
2018-May-19 10:00N 34°23' E 135°09'0 0.0
2018-May-19 09:30N 34°23' E 135°09'0 0.0
2018-May-19 09:00N 34°23' E 135°09'0 0.0
2018-May-19 08:30N 34°23' E 135°09'0 0.0
2018-May-19 08:00N 34°23' E 135°09'0 0.0
2018-May-19 07:30N 34°23' E 135°09'0 0.0
2018-May-19 07:00N 34°23' E 135°09'0 0.0
2018-May-19 06:30N 34°23' E 135°09'0 0.0
2018-May-19 06:00N 34°23' E 135°09'0 0.0
2018-May-19 05:30N 34°23' E 135°09'0 0.0
2018-May-19 05:00N 34°23' E 135°09'0 0.0
2018-May-19 04:30N 34°23' E 135°09'0 0.0
2018-May-19 04:00N 34°23' E 135°09'0 0.0
2018-May-19 03:30N 34°23' E 135°09'0 0.0
2018-May-19 03:00N 34°23' E 135°09'0 0.0
2018-May-19 02:30N 34°23' E 135°09'0 0.0
2018-May-19 02:00N 34°23' E 135°09'0 0.0
2018-May-19 01:29N 34°23' E 135°09'0 0.7
2018-May-19 01:01N 34°23' E 135°09'5 9.9
2018-May-19 00:30N 34°28' E 135°07'611.1
2018-May-19 00:00N 34°33' E 135°05'510.3
2018-May-18 23:29N 34°37' E 135°00'611.1
2018-May-18 22:57N 34°35' E 134°53'611.4
2018-May-18 22:27N 34°33' E 134°47'511.1
2018-May-18 22:00N 34°31' E 134°42'611.7
2018-May-18 21:30N 34°28' E 134°35'612.0
2018-May-18 21:00N 34°26' E 134°28'811.7
2018-May-18 20:20N 34°24' E 134°19'  
2018-May-16 05:41N 34°25' E 134°21'312.0
2018-May-16 05:24N 34°26' E 134°25'511.7
2018-May-16 05:00N 34°28' E 134°30'611.6
2018-May-16 04:30N 34°30' E 134°37'611.6
2018-May-16 03:58N 34°32' E 134°44'611.5
2018-May-16 03:29N 34°34' E 134°50'1010.7
2018-May-16 02:33N 34°37' E 135°01'111.1
2018-May-16 02:28N 34°37' E 135°02'4 9.4
2018-May-16 02:00N 34°33' E 135°06'612.3
2018-May-16 01:31N 34°27' E 135°04'612.1
2018-May-16 01:00N 34°22' E 135°02'612.2
2018-May-16 00:30N 34°16' E 134°59'612.6
2018-May-16 00:00N 34°10' E 135°00'612.6
2018-May-15 23:31N 34°03' E 135°01'612.4
2018-May-15 23:01N 33°57' E 135°02'105 8.6
2018-May-15 10:53N 34°33' E 137°01'512.4
2018-May-15 10:30N 34°36' E 136°56'612.3
2018-May-15 10:00N 34°40' E 136°50'611.3
2018-May-15 09:30N 34°45' E 136°47'611.3
2018-May-15 09:00N 34°50' E 136°45'611.4
2018-May-15 08:31N 34°56' E 136°46'611.9
2018-May-15 08:00N 35°01' E 136°50'2 4.6
2018-May-15 07:31N 35°03' E 136°50'0 0.1
2018-May-15 06:58N 35°03' E 136°50'0 0.0
2018-May-15 06:28N 35°03' E 136°50'0 0.0
2018-May-15 05:58N 35°03' E 136°50'0 0.0
2018-May-15 05:28N 35°03' E 136°50'0 0.0
2018-May-15 04:58N 35°03' E 136°50'0 0.0
2018-May-15 04:28N 35°03' E 136°50'0 0.0
2018-May-15 03:58N 35°03' E 136°50'0 0.0
2018-May-15 03:28N 35°03' E 136°50'0 0.0
2018-May-15 02:58N 35°03' E 136°50'0 0.0
2018-May-15 02:28N 35°03' E 136°50'0 0.0
2018-May-15 01:58N 35°03' E 136°50'0 0.0
2018-May-15 01:25N 35°03' E 136°50'0 0.0
2018-May-15 01:01N 35°03' E 136°50'0 0.0
2018-May-15 00:31N 35°03' E 136°50'0 0.0
2018-May-15 00:01N 35°03' E 136°50'0 0.0
2018-May-14 23:30N 35°03' E 136°50'0 0.8
2018-May-14 23:00N 35°03' E 136°50'0 0.0
2018-May-14 22:30N 35°03' E 136°50'0 0.0
2018-May-14 22:00N 35°03' E 136°50'0 0.0
2018-May-14 21:30N 35°03' E 136°50'0 0.0
2018-May-14 21:00N 35°03' E 136°50'0 0.0
2018-May-14 20:30N 35°03' E 136°50'0 0.0
2018-May-14 20:00N 35°03' E 136°50'0 0.0
2018-May-14 19:30N 35°03' E 136°50'0 0.0
2018-May-14 19:00N 35°03' E 136°50'0 0.0
2018-May-14 18:30N 35°03' E 136°50'0 0.0
2018-May-14 18:00N 35°03' E 136°50'0 0.0
2018-May-14 17:30N 35°03' E 136°50'0 0.0
2018-May-14 17:00N 35°03' E 136°50'0 0.0
2018-May-14 16:30N 35°03' E 136°50'0 0.0
2018-May-14 16:00N 35°03' E 136°50'0 0.0
2018-May-14 15:30N 35°03' E 136°50'0 0.0
2018-May-14 15:00N 35°03' E 136°50'0 0.0
2018-May-14 14:30N 35°03' E 136°50'0 0.0
2018-May-14 14:00N 35°03' E 136°50'0 0.0
2018-May-14 13:30N 35°03' E 136°50'0 0.0
2018-May-14 13:00N 35°03' E 136°50'0 0.0
2018-May-14 12:30N 35°03' E 136°50'0 0.0
2018-May-14 11:54N 35°03' E 136°50'0 0.0
2018-May-14 11:30N 35°03' E 136°50'0 0.0
2018-May-14 11:00N 35°03' E 136°50'0 0.0
2018-May-14 10:30N 35°03' E 136°50'0 0.0
2018-May-14 10:00N 35°03' E 136°50'0 0.0
2018-May-14 09:30N 35°03' E 136°50'0 0.0
2018-May-14 09:00N 35°03' E 136°50'0 0.0
2018-May-14 08:30N 35°03' E 136°50'0 0.0
2018-May-14 08:00N 35°03' E 136°50'0 0.0
2018-May-14 07:30N 35°03' E 136°50'0 0.0
2018-May-14 07:00N 35°03' E 136°50'0 0.0
2018-May-14 06:30N 35°03' E 136°50'1 2.3
2018-May-14 06:00N 35°02' E 136°51'510.9
2018-May-14 05:30N 34°57' E 136°47'510.2
2018-May-14 05:00N 34°52' E 136°46'510.6
2018-May-14 04:30N 34°47' E 136°47'510.8
2018-May-14 04:00N 34°42' E 136°50'510.5
2018-May-14 03:30N 34°38' E 136°55'1510.0
2018-May-14 02:02N 34°32' E 137°11'110.2
2018-May-14 01:58N 34°32' E 137°12'510.2
2018-May-14 01:30N 34°32' E 137°17'4910.0
2018-May-13 20:34N 34°36' E 138°17'110.1
2018-May-13 20:29N 34°37' E 138°17'3 0.3
2018-May-13 11:26N 34°39' E 138°14'3 6.3
2018-May-13 10:55N 34°41' E 138°17'3 8.4
2018-May-13 10:30N 34°42' E 138°21'510.2
2018-May-13 10:01N 34°39' E 138°26'611.0
2018-May-13 09:28N 34°34' E 138°29'6 9.4
2018-May-13 08:51N 34°34' E 138°36'1010.3
2018-May-13 07:51N 34°34' E 138°49'410.0
2018-May-13 07:29N 34°35' E 138°53'510.8
2018-May-13 06:59N 34°38' E 138°59'610.8
2018-May-13 06:28N 34°42' E 139°04'510.2
2018-May-13 06:00N 34°45' E 139°08'710.0
2018-May-13 05:19N 34°50' E 139°14'810.4
2018-May-13 04:31N 34°50' E 139°24'011.4
2018-May-13 04:29N 34°50' E 139°25'18 9.9
2018-May-13 02:38N 34°52' E 139°47'1 9.9
2018-May-13 02:31N 34°52' E 139°48'1210.4
2018-May-13 01:23N 34°56' E 140°02'410.4
2018-May-13 01:00N 34°58' E 140°06'510.1
2018-May-13 00:30N 35°00' E 140°11'0 0.0
2018-May-11 15:32N 35°00' E 140°12'013.0
2018-May-11 15:30N 35°00' E 140°11'812.6
2018-May-11 14:52N 34°56' E 140°03'1412.7
2018-May-11 13:44N 34°50' E 139°47'312.8
2018-May-11 13:29N 34°50' E 139°43'612.8
2018-May-11 13:00N 34°50' E 139°36'713.3
2018-May-11 12:28N 34°50' E 139°27'913.2
2018-May-11 11:46N 34°46' E 139°16'413.5
2018-May-11 11:27N 34°43' E 139°12'613.5
2018-May-11 11:00N 34°40' E 139°06'813.1
2018-May-11 10:23N 34°36' E 138°58'613.6
2018-May-11 09:56N 34°35' E 138°51'913.3
2018-May-11 09:15N 34°34' E 138°40'313.0
2018-May-11 09:00N 34°34' E 138°36'612.8
2018-May-11 08:30N 34°34' E 138°28'612.6
2018-May-11 08:00N 34°33' E 138°20'612.4
2018-May-11 07:30N 34°33' E 138°13'4711.9
2018-May-11 03:31N 34°32' E 137°15'014.6
2018-May-11 03:30N 34°32' E 137°15'1211.7
2018-May-11 02:29N 34°33' E 137°00'712.2
2018-May-11 01:55N 34°38' E 136°54'511.5
2018-May-11 01:30N 34°41' E 136°49'612.0
2018-May-11 01:00N 34°46' E 136°47'612.7
2018-May-11 00:30N 34°53' E 136°46'612.0
2018-May-11 00:00N 34°58' E 136°47'1 1.4
2018-May-10 23:30N 34°59' E 136°48'0 0.0
2018-May-10 23:00N 34°59' E 136°48'0 0.1
2018-May-10 22:31N 34°59' E 136°48'4 8.2
2018-May-10 22:00N 35°02' E 136°51'2 3.3
2018-May-10 21:31N 35°03' E 136°53'0 0.2
2018-May-10 21:00N 35°03' E 136°53'0 0.0
2018-May-10 16:47N 35°03' E 136°53'0 0.2
2018-May-10 16:29N 35°03' E 136°53'0 0.1
2018-May-10 15:59N 35°03' E 136°53'0 0.0
2018-May-10 15:29N 35°03' E 136°53'0 0.0
2018-May-10 14:59N 35°03' E 136°53'0 0.8
2018-May-10 14:30N 35°03' E 136°53'5 9.1
2018-May-10 14:00N 34°59' E 136°49'2 2.8
2018-May-10 13:28N 34°58' E 136°47'0 0.1
2018-May-10 12:58N 34°58' E 136°48'0 0.0
2018-May-10 12:25N 34°58' E 136°48'0 0.0
2018-May-10 11:58N 34°58' E 136°48'0 0.0
2018-May-10 11:28N 34°58' E 136°48'0 0.0
2018-May-10 10:58N 34°58' E 136°48'0 0.0
2018-May-10 10:28N 34°58' E 136°48'0 0.0
2018-May-10 09:58N 34°58' E 136°48'0 0.3
2018-May-10 09:30N 34°58' E 136°47'5 9.2
2018-May-10 09:00N 34°54' E 136°47'510.0
2018-May-10 08:30N 34°49' E 136°47'510.1
2018-May-10 07:59N 34°44' E 136°49'510.3
2018-May-10 07:29N 34°40' E 136°53'  
Track history (hours):
 
Tides and Currents Weather Stations Pressure Air Temp Water Temp Dewpoint Dewpoint Depression Visibility Wind Speed Wind Dir Waves Ship Positions

Hitachimaru

Last reported at 2018-May-19 23:40 UTC. Time now 2018-May-23 09:42 UTC.
Position N 33°45' E 135°09'.

Length 83 m; draft 3.6 m.

Type: Cargo ship. MMSI: 431301756.

Date/timePositionNaut miles runAvg speedWind from/ knotsBaromVisibWave heightAir tempDewpointWater temp
2018-May-19 23:40N 33°45' E 135°09'311.4
2018-May-19 23:24N 33°48' E 135°07'511.3
2018-May-19 22:58N 33°51' E 135°03'911.5
2018-May-19 22:09N 34°00' E 135°01'411.9
2018-May-19 21:50N 34°04' E 135°01'411.9
2018-May-19 21:28N 34°09' E 135°02'612.3
2018-May-19 21:00N 34°14' E 135°02'612.9
2018-May-19 20:30N 34°20' E 135°05'4 8.2
2018-May-19 20:00N 34°23' E 135°09'0 0.0
2018-May-19 19:30N 34°23' E 135°09'0 0.0
2018-May-19 19:00N 34°23' E 135°09'0 0.0
2018-May-19 18:30N 34°23' E 135°09'0 0.0
2018-May-19 18:00N 34°23' E 135°09'0 0.1
2018-May-19 17:30N 34°23' E 135°09'0 0.0
2018-May-19 17:00N 34°23' E 135°09'0 0.0
2018-May-19 16:30N 34°23' E 135°09'0 0.0
2018-May-19 16:00N 34°23' E 135°09'0 0.0
2018-May-19 15:30N 34°23' E 135°09'0 0.0
2018-May-19 14:45N 34°23' E 135°09'0 0.2
2018-May-19 14:27N 34°23' E 135°09'0 0.0
2018-May-19 14:00N 34°23' E 135°09'0 0.0
2018-May-19 13:30N 34°23' E 135°09'0 0.0
2018-May-19 13:00N 34°23' E 135°09'0 0.0
2018-May-19 12:30N 34°23' E 135°09'0 0.0
2018-May-19 12:00N 34°23' E 135°09'0 0.0
2018-May-19 11:30N 34°23' E 135°09'0 0.0
2018-May-19 11:00N 34°23' E 135°09'0 0.0
2018-May-19 10:30N 34°23' E 135°09'0 0.0
2018-May-19 10:00N 34°23' E 135°09'0 0.0
2018-May-19 09:30N 34°23' E 135°09'0 0.0
2018-May-19 09:00N 34°23' E 135°09'0 0.0
2018-May-19 08:30N 34°23' E 135°09'0 0.0
2018-May-19 08:00N 34°23' E 135°09'0 0.0
2018-May-19 07:30N 34°23' E 135°09'0 0.0
2018-May-19 07:00N 34°23' E 135°09'0 0.0
2018-May-19 06:30N 34°23' E 135°09'0 0.0
2018-May-19 06:00N 34°23' E 135°09'0 0.0
2018-May-19 05:30N 34°23' E 135°09'0 0.0
2018-May-19 05:00N 34°23' E 135°09'0 0.0
2018-May-19 04:30N 34°23' E 135°09'0 0.0
2018-May-19 04:00N 34°23' E 135°09'0 0.0
2018-May-19 03:30N 34°23' E 135°09'0 0.0
2018-May-19 03:00N 34°23' E 135°09'0 0.0
2018-May-19 02:30N 34°23' E 135°09'0 0.0
2018-May-19 02:00N 34°23' E 135°09'0 0.0
2018-May-19 01:29N 34°23' E 135°09'0 0.7
2018-May-19 01:01N 34°23' E 135°09'5 9.9
2018-May-19 00:30N 34°28' E 135°07'611.1
2018-May-19 00:00N 34°33' E 135°05'510.3
2018-May-18 23:29N 34°37' E 135°00'611.1
2018-May-18 22:57N 34°35' E 134°53'611.4
2018-May-18 22:27N 34°33' E 134°47'511.1
2018-May-18 22:00N 34°31' E 134°42'611.7
2018-May-18 21:30N 34°28' E 134°35'612.0
2018-May-18 21:00N 34°26' E 134°28'811.7
2018-May-18 20:20N 34°24' E 134°19'  
2018-May-16 05:41N 34°25' E 134°21'312.0
2018-May-16 05:24N 34°26' E 134°25'511.7
2018-May-16 05:00N 34°28' E 134°30'611.6
2018-May-16 04:30N 34°30' E 134°37'611.6
2018-May-16 03:58N 34°32' E 134°44'611.5
2018-May-16 03:29N 34°34' E 134°50'1010.7
2018-May-16 02:33N 34°37' E 135°01'111.1
2018-May-16 02:28N 34°37' E 135°02'4 9.4
2018-May-16 02:00N 34°33' E 135°06'612.3
2018-May-16 01:31N 34°27' E 135°04'612.1
2018-May-16 01:00N 34°22' E 135°02'612.2
2018-May-16 00:30N 34°16' E 134°59'612.6
2018-May-16 00:00N 34°10' E 135°00'612.6
2018-May-15 23:31N 34°03' E 135°01'612.4
2018-May-15 23:01N 33°57' E 135°02'105 8.6
2018-May-15 10:53N 34°33' E 137°01'512.4
2018-May-15 10:30N 34°36' E 136°56'612.3
2018-May-15 10:00N 34°40' E 136°50'611.3
2018-May-15 09:30N 34°45' E 136°47'611.3
2018-May-15 09:00N 34°50' E 136°45'611.4
2018-May-15 08:31N 34°56' E 136°46'611.9
2018-May-15 08:00N 35°01' E 136°50'2 4.6
2018-May-15 07:31N 35°03' E 136°50'0 0.1
2018-May-15 06:58N 35°03' E 136°50'0 0.0
2018-May-15 06:28N 35°03' E 136°50'0 0.0
2018-May-15 05:58N 35°03' E 136°50'0 0.0
2018-May-15 05:28N 35°03' E 136°50'0 0.0
2018-May-15 04:58N 35°03' E 136°50'0 0.0
2018-May-15 04:28N 35°03' E 136°50'0 0.0
2018-May-15 03:58N 35°03' E 136°50'0 0.0
2018-May-15 03:28N 35°03' E 136°50'0 0.0
2018-May-15 02:58N 35°03' E 136°50'0 0.0
2018-May-15 02:28N 35°03' E 136°50'0 0.0
2018-May-15 01:58N 35°03' E 136°50'0 0.0
2018-May-15 01:25N 35°03' E 136°50'0 0.0
2018-May-15 01:01N 35°03' E 136°50'0 0.0
2018-May-15 00:31N 35°03' E 136°50'0 0.0
2018-May-15 00:01N 35°03' E 136°50'0 0.0
2018-May-14 23:30N 35°03' E 136°50'0 0.8
2018-May-14 23:00N 35°03' E 136°50'0 0.0
2018-May-14 22:30N 35°03' E 136°50'0 0.0
2018-May-14 22:00N 35°03' E 136°50'0 0.0
2018-May-14 21:30N 35°03' E 136°50'0 0.0
2018-May-14 21:00N 35°03' E 136°50'0 0.0
2018-May-14 20:30N 35°03' E 136°50'0 0.0
2018-May-14 20:00N 35°03' E 136°50'0 0.0
2018-May-14 19:30N 35°03' E 136°50'0 0.0
2018-May-14 19:00N 35°03' E 136°50'0 0.0
2018-May-14 18:30N 35°03' E 136°50'0 0.0
2018-May-14 18:00N 35°03' E 136°50'0 0.0
2018-May-14 17:30N 35°03' E 136°50'0 0.0
2018-May-14 17:00N 35°03' E 136°50'0 0.0
2018-May-14 16:30N 35°03' E 136°50'0 0.0
2018-May-14 16:00N 35°03' E 136°50'0 0.0
2018-May-14 15:30N 35°03' E 136°50'0 0.0
2018-May-14 15:00N 35°03' E 136°50'0 0.0
2018-May-14 14:30N 35°03' E 136°50'0 0.0
2018-May-14 14:00N 35°03' E 136°50'0 0.0
2018-May-14 13:30N 35°03' E 136°50'0 0.0
2018-May-14 13:00N 35°03' E 136°50'0 0.0
2018-May-14 12:30N 35°03' E 136°50'0 0.0
2018-May-14 11:54N 35°03' E 136°50'0 0.0
2018-May-14 11:30N 35°03' E 136°50'0 0.0
2018-May-14 11:00N 35°03' E 136°50'0 0.0
2018-May-14 10:30N 35°03' E 136°50'0 0.0
2018-May-14 10:00N 35°03' E 136°50'0 0.0
2018-May-14 09:30N 35°03' E 136°50'0 0.0
2018-May-14 09:00N 35°03' E 136°50'0 0.0
2018-May-14 08:30N 35°03' E 136°50'0 0.0
2018-May-14 08:00N 35°03' E 136°50'0 0.0
2018-May-14 07:30N 35°03' E 136°50'0 0.0
2018-May-14 07:00N 35°03' E 136°50'0 0.0
2018-May-14 06:30N 35°03' E 136°50'1 2.3
2018-May-14 06:00N 35°02' E 136°51'510.9
2018-May-14 05:30N 34°57' E 136°47'510.2
2018-May-14 05:00N 34°52' E 136°46'510.6
2018-May-14 04:30N 34°47' E 136°47'510.8
2018-May-14 04:00N 34°42' E 136°50'510.5
2018-May-14 03:30N 34°38' E 136°55'1510.0
2018-May-14 02:02N 34°32' E 137°11'110.2
2018-May-14 01:58N 34°32' E 137°12'510.2
2018-May-14 01:30N 34°32' E 137°17'4910.0
2018-May-13 20:34N 34°36' E 138°17'110.1
2018-May-13 20:29N 34°37' E 138°17'3 0.3
2018-May-13 11:26N 34°39' E 138°14'3 6.3
2018-May-13 10:55N 34°41' E 138°17'3 8.4
2018-May-13 10:30N 34°42' E 138°21'510.2
2018-May-13 10:01N 34°39' E 138°26'611.0
2018-May-13 09:28N 34°34' E 138°29'6 9.4
2018-May-13 08:51N 34°34' E 138°36'1010.3
2018-May-13 07:51N 34°34' E 138°49'410.0
2018-May-13 07:29N 34°35' E 138°53'510.8
2018-May-13 06:59N 34°38' E 138°59'610.8
2018-May-13 06:28N 34°42' E 139°04'510.2
2018-May-13 06:00N 34°45' E 139°08'710.0
2018-May-13 05:19N 34°50' E 139°14'810.4
2018-May-13 04:31N 34°50' E 139°24'011.4
2018-May-13 04:29N 34°50' E 139°25'18 9.9
2018-May-13 02:38N 34°52' E 139°47'1 9.9
2018-May-13 02:31N 34°52' E 139°48'1210.4
2018-May-13 01:23N 34°56' E 140°02'410.4
2018-May-13 01:00N 34°58' E 140°06'510.1
2018-May-13 00:30N 35°00' E 140°11'0 0.0
2018-May-11 15:32N 35°00' E 140°12'013.0
2018-May-11 15:30N 35°00' E 140°11'812.6
2018-May-11 14:52N 34°56' E 140°03'1412.7
2018-May-11 13:44N 34°50' E 139°47'312.8
2018-May-11 13:29N 34°50' E 139°43'612.8
2018-May-11 13:00N 34°50' E 139°36'713.3
2018-May-11 12:28N 34°50' E 139°27'913.2
2018-May-11 11:46N 34°46' E 139°16'413.5
2018-May-11 11:27N 34°43' E 139°12'613.5
2018-May-11 11:00N 34°40' E 139°06'813.1
2018-May-11 10:23N 34°36' E 138°58'613.6
2018-May-11 09:56N 34°35' E 138°51'913.3
2018-May-11 09:15N 34°34' E 138°40'313.0
2018-May-11 09:00N 34°34' E 138°36'612.8
2018-May-11 08:30N 34°34' E 138°28'612.6
2018-May-11 08:00N 34°33' E 138°20'612.4
2018-May-11 07:30N 34°33' E 138°13'4711.9
2018-May-11 03:31N 34°32' E 137°15'014.6
2018-May-11 03:30N 34°32' E 137°15'1211.7
2018-May-11 02:29N 34°33' E 137°00'712.2
2018-May-11 01:55N 34°38' E 136°54'511.5
2018-May-11 01:30N 34°41' E 136°49'612.0
2018-May-11 01:00N 34°46' E 136°47'612.7
2018-May-11 00:30N 34°53' E 136°46'612.0
2018-May-11 00:00N 34°58' E 136°47'1 1.4
2018-May-10 23:30N 34°59' E 136°48'0 0.0
2018-May-10 23:00N 34°59' E 136°48'0 0.1
2018-May-10 22:31N 34°59' E 136°48'4 8.2
2018-May-10 22:00N 35°02' E 136°51'2 3.3
2018-May-10 21:31N 35°03' E 136°53'0 0.2
2018-May-10 21:00N 35°03' E 136°53'0 0.0
2018-May-10 16:47N 35°03' E 136°53'0 0.2
2018-May-10 16:29N 35°03' E 136°53'0 0.1
2018-May-10 15:59N 35°03' E 136°53'0 0.0
2018-May-10 15:29N 35°03' E 136°53'0 0.0
2018-May-10 14:59N 35°03' E 136°53'0 0.8
2018-May-10 14:30N 35°03' E 136°53'5 9.1
2018-May-10 14:00N 34°59' E 136°49'2 2.8
2018-May-10 13:28N 34°58' E 136°47'0 0.1
2018-May-10 12:58N 34°58' E 136°48'0 0.0
2018-May-10 12:25N 34°58' E 136°48'0 0.0
2018-May-10 11:58N 34°58' E 136°48'0 0.0
2018-May-10 11:28N 34°58' E 136°48'0 0.0
2018-May-10 10:58N 34°58' E 136°48'0 0.0
2018-May-10 10:28N 34°58' E 136°48'0 0.0
2018-May-10 09:58N 34°58' E 136°48'0 0.3
2018-May-10 09:30N 34°58' E 136°47'5 9.2
2018-May-10 09:00N 34°54' E 136°47'510.0
2018-May-10 08:30N 34°49' E 136°47'510.1
2018-May-10 07:59N 34°44' E 136°49'510.3
2018-May-10 07:29N 34°40' E 136°53'  

Dump ship's entire track history